Time;durP1;ratioP1;P1;durP2;ratioP2;P2;SDS_P1;SDS_P2;PMS_P1;PMS_P2;Temp;Humidity;BMP_temperature;BMP_pressure;BME280_temperature;BME280_humidity;BME280_pressure;Samples;Min_cycle;Max_cycle;Signal;HPM_P1;HPM_P2
2022/08/06 00:00:35;;;;;;;;;;;;;;;;;;4979603;28;21734;-86
2022/08/06 00:03:00;;;;;;;;;;;;;;;;;;4950209;28;19923;-88
2022/08/06 00:05:26;;;;;;;;;;;;;;;;;;4948585;28;19915;-85
2022/08/06 00:07:51;;;;;;;;;;;;;;;;;;4950585;28;19961;-87
2022/08/06 00:10:16;;;;;;;;;;;;;;;;;;4952560;28;20054;-86
2022/08/06 00:12:41;;;;;;;;;;;;;;;;;;4951369;28;19921;-88
2022/08/06 00:15:06;;;;;;;;;;;;;;;;;;4953072;28;19933;-87
2022/08/06 00:17:31;;;;;;;;;;;;;;;;;;4984422;28;19910;-88
2022/08/06 00:19:57;;;;;;;;;;;;;;;;;;4947691;28;19950;-87
2022/08/06 00:22:22;;;;;;;;;;;;;;;;;;4954511;28;19910;-88
2022/08/06 00:24:47;;;;;;;;;;;;;;;;;;4947000;28;19926;-87
2022/08/06 00:27:12;;;;;;;;;;;;;;;;;;4945248;28;20009;-86
2022/08/06 00:29:37;;;;;;;;;;;;;;;;;;4949947;28;19915;-87
2022/08/06 00:32:02;;;;;;;;;;;;;;;;;;4947559;28;20013;-86
2022/08/06 00:34:27;;;;;;;;;;;;;;;;;;4951012;28;19929;-88
2022/08/06 00:36:53;;;;;;;;;;;;;;;;;;4947943;28;20261;-86
2022/08/06 00:39:18;;;;;;;;;;;;;;;;;;4944168;28;19942;-86
2022/08/06 00:41:43;;;;;;;;;;;;;;;;;;4950591;28;20377;-86
2022/08/06 00:44:08;;;;;;;;;;;;;;;;;;4948145;28;19915;-87
2022/08/06 00:46:33;;;;;;;;;;;;;;;;;;4941708;28;20377;-87
2022/08/06 00:48:59;;;;;;;;;;;;;;;;;;4947141;29;19970;-87
2022/08/06 00:51:24;;;;;;;;;;;;;;;;;;4941039;28;20020;-86
2022/08/06 00:53:49;;;;;;;;;;;;;;;;;;4950436;28;20849;-87
2022/08/06 00:56:14;;;;;;;;;;;;;;;;;;4949364;28;19950;-86
2022/08/06 00:58:39;;;;;;;;;;;;;;;;;;4950129;29;19975;-87
2022/08/06 01:01:04;;;;;;;;;;;;;;;;;;4951313;28;20526;-87
2022/08/06 01:03:30;;;;;;;;;;;;;;;;;;4946350;29;19919;-87
2022/08/06 01:05:55;;;;;;;;;;;;;;;;;;4942458;28;19919;-88
2022/08/06 01:08:20;;;;;;;;;;;;;;;;;;4948250;28;20024;-86
2022/08/06 01:10:45;;;;;;;;;;;;;;;;;;4946501;29;20393;-86
2022/08/06 01:13:10;;;;;;;;;;;;;;;;;;4978481;28;20506;-86
2022/08/06 01:15:35;;;;;;;;;;;;;;;;;;4949683;28;20389;-87
2022/08/06 01:18:01;;;;;;;;;;;;;;;;;;4944682;28;20018;-87
2022/08/06 01:20:26;;;;;;;;;;;;;;;;;;4945469;28;19925;-86
2022/08/06 01:22:51;;;;;;;;;;;;;;;;;;4945905;29;20076;-87
2022/08/06 01:25:16;;;;;;;;;;;;;;;;;;4947531;28;19923;-87
2022/08/06 01:27:41;;;;;;;;;;;;;;;;;;4973637;28;20261;-87
2022/08/06 01:30:06;;;;;;;;;;;;;;;;;;4945634;28;19926;-87
2022/08/06 01:32:32;;;;;;;;;;;;;;;;;;4949582;29;19914;-88
2022/08/06 01:34:57;;;;;;;;;;;;;;;;;;4949125;28;19921;-87
2022/08/06 01:37:22;;;;;;;;;;;;;;;;;;4949572;28;19915;-87
2022/08/06 01:39:47;;;;;;;;;;;;;;;;;;4952427;28;19914;-87
2022/08/06 01:42:12;;;;;;;;;;;;;;;;;;4945494;28;19983;-87
2022/08/06 01:44:37;;;;;;;;;;;;;;;;;;4977010;28;20296;-86
2022/08/06 01:47:03;;;;;;;;;;;;;;;;;;4946004;28;19922;-88
2022/08/06 01:49:28;;;;;;;;;;;;;;;;;;4946948;28;20357;-87
2022/08/06 01:51:53;;;;;;;;;;;;;;;;;;4950197;29;20013;-87
2022/08/06 01:54:18;;;;;;;;;;;;;;;;;;4952328;29;20005;-86
2022/08/06 01:56:44;;;;;;;;;;;;;;;;;;4949631;29;19943;-86
2022/08/06 01:59:09;;;;;;;;;;;;;;;;;;4951568;28;19914;-88
2022/08/06 02:01:34;;;;;;;;;;;;;;;;;;4942088;29;19921;-86
2022/08/06 02:03:59;;;;;;;;;;;;;;;;;;4951543;28;19926;-88
2022/08/06 02:06:24;;;;;;;;;;;;;;;;;;4947087;28;19914;-86
2022/08/06 02:08:49;;;;;;;;;;;;;;;;;;4979004;28;19937;-86
2022/08/06 02:11:15;;;;;;;;;;;;;;;;;;4947266;28;20369;-86
2022/08/06 02:13:40;;;;;;;;;;;;;;;;;;4948107;28;19923;-87
2022/08/06 02:16:05;;;;;;;;;;;;;;;;;;4951089;28;19918;-86
2022/08/06 02:18:30;;;;;;;;;;;;;;;;;;4943912;29;20381;-86
2022/08/06 02:20:55;;;;;;;;;;;;;;;;;;4948306;29;20057;-87
2022/08/06 02:23:20;;;;;;;;;;;;;;;;;;4950032;28;19925;-87
2022/08/06 02:25:45;;;;;;;;;;;;;;;;;;4946526;28;20010;-86
2022/08/06 02:28:11;;;;;;;;;;;;;;;;;;4941461;28;20396;-86
2022/08/06 02:30:36;;;;;;;;;;;;;;;;;;4943133;29;19925;-86
2022/08/06 02:33:01;;;;;;;;;;;;;;;;;;4940968;29;19915;-87
2022/08/06 02:35:27;;;;;;;;;;;;;;;;;;4946266;28;19922;-85
2022/08/06 02:37:52;;;;;;;;;;;;;;;;;;4948667;28;20349;-85
2022/08/06 02:40:17;;;;;;;;;;;;;;;;;;4943527;28;19914;-86
2022/08/06 02:42:42;;;;;;;;;;;;;;;;;;4973210;28;19954;-86
2022/08/06 02:45:07;;;;;;;;;;;;;;;;;;4945807;29;20004;-87
2022/08/06 02:47:32;;;;;;;;;;;;;;;;;;4947361;28;19918;-87
2022/08/06 02:49:58;;;;;;;;;;;;;;;;;;4945175;28;19958;-87
2022/08/06 02:52:23;;;;;;;;;;;;;;;;;;4972757;28;20005;-88
2022/08/06 02:54:48;;;;;;;;;;;;;;;;;;4942362;28;19919;-87
2022/08/06 02:57:13;;;;;;;;;;;;;;;;;;4946822;28;19941;-87
2022/08/06 02:59:39;;;;;;;;;;;;;;;;;;4942370;28;20429;-88
2022/08/06 03:02:04;;;;;;;;;;;;;;;;;;4945019;29;19915;-86
2022/08/06 03:04:29;;;;;;;;;;;;;;;;;;4948124;28;19981;-87
2022/08/06 03:06:54;;;;;;;;;;;;;;;;;;4969442;28;19918;-86
2022/08/06 03:09:19;;;;;;;;;;;;;;;;;;4940678;28;20333;-87
2022/08/06 03:11:45;;;;;;;;;;;;;;;;;;4946535;29;19969;-87
2022/08/06 03:14:10;;;;;;;;;;;;;;;;;;4949779;28;20281;-86
2022/08/06 03:16:35;;;;;;;;;;;;;;;;;;4946619;29;19915;-85
2022/08/06 03:19:00;;;;;;;;;;;;;;;;;;4952113;28;19911;-86
2022/08/06 03:21:25;;;;;;;;;;;;;;;;;;4950318;28;19967;-86
2022/08/06 03:23:51;;;;;;;;;;;;;;;;;;4950499;29;19915;-86
2022/08/06 03:26:16;;;;;;;;;;;;;;;;;;4951305;28;20616;-86
2022/08/06 03:28:41;;;;;;;;;;;;;;;;;;4951444;29;19911;-86
2022/08/06 03:31:06;;;;;;;;;;;;;;;;;;4982211;28;19989;-87
2022/08/06 03:33:31;;;;;;;;;;;;;;;;;;4954708;29;20072;-86
2022/08/06 03:35:56;;;;;;;;;;;;;;;;;;4951019;28;19941;-86
2022/08/06 03:38:21;;;;;;;;;;;;;;;;;;4953043;28;19929;-87
2022/08/06 03:40:47;;;;;;;;;;;;;;;;;;4953237;28;20432;-86
2022/08/06 03:43:12;;;;;;;;;;;;;;;;;;4953664;28;19921;-88
2022/08/06 03:45:37;;;;;;;;;;;;;;;;;;4949004;28;19915;-87
2022/08/06 03:48:02;;;;;;;;;;;;;;;;;;4952228;28;19933;-87
2022/08/06 03:50:27;;;;;;;;;;;;;;;;;;4950040;28;20440;-87
2022/08/06 03:52:52;;;;;;;;;;;;;;;;;;4952474;29;19914;-86
2022/08/06 03:55:18;;;;;;;;;;;;;;;;;;4951293;28;19915;-86
2022/08/06 03:57:43;;;;;;;;;;;;;;;;;;4953973;29;20369;-86
2022/08/06 04:00:08;;;;;;;;;;;;;;;;;;4951609;28;19922;-86
2022/08/06 04:02:33;;;;;;;;;;;;;;;;;;4949523;28;20385;-88
2022/08/06 04:04:59;;;;;;;;;;;;;;;;;;4949464;28;20038;-86
2022/08/06 04:07:24;;;;;;;;;;;;;;;;;;4952013;28;20388;-87
2022/08/06 04:09:49;;;;;;;;;;;;;;;;;;4948964;28;19942;-86
2022/08/06 04:12:14;;;;;;;;;;;;;;;;;;4953341;29;20262;-86
2022/08/06 04:14:40;;;;;;;;;;;;;;;;;;4977454;28;19960;-87
2022/08/06 04:17:05;;;;;;;;;;;;;;;;;;4948532;28;20288;-88
2022/08/06 04:19:30;;;;;;;;;;;;;;;;;;4946227;28;19926;-87
2022/08/06 04:21:55;;;;;;;;;;;;;;;;;;4948013;29;20009;-87
2022/08/06 04:24:21;;;;;;;;;;;;;;;;;;4947018;28;19915;-86
2022/08/06 04:26:46;;;;;;;;;;;;;;;;;;4945365;28;20292;-86
2022/08/06 04:29:11;;;;;;;;;;;;;;;;;;4950451;28;19914;-87
2022/08/06 04:31:36;;;;;;;;;;;;;;;;;;4984730;28;20344;-87
2022/08/06 04:34:02;;;;;;;;;;;;;;;;;;4949995;28;20001;-87
2022/08/06 04:36:27;;;;;;;;;;;;;;;;;;4951005;28;19919;-86
2022/08/06 04:38:52;;;;;;;;;;;;;;;;;;4948274;28;20008;-87
2022/08/06 04:41:17;;;;;;;;;;;;;;;;;;4953397;28;19914;-86
2022/08/06 04:43:42;;;;;;;;;;;;;;;;;;4951804;29;19922;-87
2022/08/06 04:46:07;;;;;;;;;;;;;;;;;;4950524;28;19915;-87
2022/08/06 04:48:33;;;;;;;;;;;;;;;;;;4953153;28;19918;-87
2022/08/06 04:50:58;;;;;;;;;;;;;;;;;;4950495;28;20300;-87
2022/08/06 04:53:23;;;;;;;;;;;;;;;;;;4979639;28;19970;-86
2022/08/06 04:55:48;;;;;;;;;;;;;;;;;;4950299;28;19942;-87
2022/08/06 04:58:13;;;;;;;;;;;;;;;;;;4948119;29;19915;-86
2022/08/06 05:00:39;;;;;;;;;;;;;;;;;;4948240;28;19915;-86
2022/08/06 05:03:04;;;;;;;;;;;;;;;;;;4947139;28;19962;-86
2022/08/06 05:05:29;;;;;;;;;;;;;;;;;;4950282;28;19914;-86
2022/08/06 05:07:54;;;;;;;;;;;;;;;;;;4950684;28;19965;-85
2022/08/06 05:10:19;;;;;;;;;;;;;;;;;;4948589;28;19953;-85
2022/08/06 05:12:44;;;;;;;;;;;;;;;;;;4953587;28;20292;-85
2022/08/06 05:15:10;;;;;;;;;;;;;;;;;;4953094;28;20020;-86
2022/08/06 05:17:35;;;;;;;;;;;;;;;;;;4949601;29;20347;-85
2022/08/06 05:20:00;;;;;;;;;;;;;;;;;;4952258;29;20057;-86
2022/08/06 05:22:25;;;;;;;;;;;;;;;;;;4950661;28;19922;-86
2022/08/06 05:24:50;;;;;;;;;;;;;;;;;;4950901;28;20388;-85
2022/08/06 05:27:15;;;;;;;;;;;;;;;;;;4949459;28;19926;-86
2022/08/06 05:29:41;;;;;;;;;;;;;;;;;;4945943;28;19914;-86
2022/08/06 05:32:06;;;;;;;;;;;;;;;;;;4950568;28;19921;-85
2022/08/06 05:34:31;;;;;;;;;;;;;;;;;;4950015;28;20324;-85
2022/08/06 05:36:56;;;;;;;;;;;;;;;;;;4953480;28;19920;-86
2022/08/06 05:39:22;;;;;;;;;;;;;;;;;;4945623;28;19914;-85
2022/08/06 05:41:48;;;;;;;;;;;;;;;;;;4951181;28;20452;-86
2022/08/06 05:44:13;;;;;;;;;;;;;;;;;;4949970;28;19918;-85
2022/08/06 05:46:40;;;;;;;;;;;;;;;;;;4947129;28;19934;-86
2022/08/06 05:49:05;;;;;;;;;;;;;;;;;;4948574;28;19915;-85
2022/08/06 05:51:30;;;;;;;;;;;;;;;;;;4948722;28;20357;-86
2022/08/06 05:53:56;;;;;;;;;;;;;;;;;;4946529;28;19915;-85
2022/08/06 05:56:21;;;;;;;;;;;;;;;;;;4951970;28;19992;-85
2022/08/06 05:58:46;;;;;;;;;;;;;;;;;;4948905;28;19923;-85
2022/08/06 06:01:11;;;;;;;;;;;;;;;;;;4951552;29;19914;-85
2022/08/06 06:03:36;;;;;;;;;;;;;;;;;;4947255;28;20023;-86
2022/08/06 06:06:01;;;;;;;;;;;;;;;;;;4944696;29;20041;-86
2022/08/06 06:08:27;;;;;;;;;;;;;;;;;;4944295;28;19922;-86
2022/08/06 06:10:52;;;;;;;;;;;;;;;;;;4949830;28;19992;-85
2022/08/06 06:13:17;;;;;;;;;;;;;;;;;;4951135;28;19918;-85
2022/08/06 06:15:42;;;;;;;;;;;;;;;;;;4976868;28;19942;-86
2022/08/06 06:18:07;;;;;;;;;;;;;;;;;;4948465;29;19943;-87
2022/08/06 06:20:32;;;;;;;;;;;;;;;;;;4951046;28;19946;-85
2022/08/06 06:22:58;;;;;;;;;;;;;;;;;;4952905;28;19929;-85
2022/08/06 06:25:23;;;;;;;;;;;;;;;;;;4948602;28;19957;-86
2022/08/06 06:27:48;;;;;;;;;;;;;;;;;;4948412;28;20269;-86
2022/08/06 06:30:13;;;;;;;;;;;;;;;;;;4949128;29;19915;-85
2022/08/06 06:32:38;;;;;;;;;;;;;;;;;;4948542;28;19925;-85
2022/08/06 06:35:03;;;;;;;;;;;;;;;;;;4970306;28;20670;-85
2022/08/06 06:37:29;;;;;;;;;;;;;;;;;;4935918;28;19915;-85
2022/08/06 06:39:54;;;;;;;;;;;;;;;;;;4969377;28;20535;-86
2022/08/06 06:42:20;;;;;;;;;;;;;;;;;;4949333;28;19942;-85
2022/08/06 06:44:46;;;;;;;;;;;;;;;;;;4943331;28;20543;-84
2022/08/06 06:47:12;;;;;;;;;;;;;;;;;;4947817;28;19923;-85
2022/08/06 06:49:37;;;;;;;;;;;;;;;;;;4950371;28;20121;-86
2022/08/06 06:52:05;;;;;;;;;;;;;;;;;;4943002;29;19970;-85
2022/08/06 06:54:30;;;;;;;;;;;;;;;;;;4943746;28;19921;-85
2022/08/06 06:56:55;;;;;;;;;;;;;;;;;;4941393;28;19914;-86
2022/08/06 06:59:20;;;;;;;;;;;;;;;;;;4944907;28;20377;-86
2022/08/06 07:01:45;;;;;;;;;;;;;;;;;;4949152;28;19914;-86
2022/08/06 07:04:10;;;;;;;;;;;;;;;;;;4942037;28;19943;-86
2022/08/06 07:06:36;;;;;;;;;;;;;;;;;;4944512;28;19914;-87
2022/08/06 07:09:01;;;;;;;;;;;;;;;;;;4947948;28;19922;-86
2022/08/06 07:11:26;;;;;;;;;;;;;;;;;;4944041;29;19919;-86
2022/08/06 07:13:51;;;;;;;;;;;;;;;;;;4942689;29;19962;-86
2022/08/06 07:16:16;;;;;;;;;;;;;;;;;;4974138;28;20024;-86
2022/08/06 07:18:42;;;;;;;;;;;;;;;;;;4945584;29;19943;-86
2022/08/06 07:21:07;;;;;;;;;;;;;;;;;;4940010;28;19934;-87
2022/08/06 07:23:32;;;;;;;;;;;;;;;;;;4973581;28;20332;-87
2022/08/06 07:25:57;;;;;;;;;;;;;;;;;;4944020;28;20377;-86
2022/08/06 07:28:25;;;;;;;;;;;;;;;;;;4945480;28;19925;-89
2022/08/06 07:30:50;;;;;;;;;;;;;;;;;;4943198;28;19976;-86
2022/08/06 07:33:15;;;;;;;;;;;;;;;;;;4948249;28;20389;-89
2022/08/06 07:35:41;;;;;;;;;;;;;;;;;;4940985;28;20637;-87
2022/08/06 07:38:06;;;;;;;;;;;;;;;;;;4945516;28;20388;-86
2022/08/06 07:40:31;;;;;;;;;;;;;;;;;;4944656;28;19914;-87
2022/08/06 07:42:56;;;;;;;;;;;;;;;;;;4943759;28;20059;-86
2022/08/06 07:45:22;;;;;;;;;;;;;;;;;;4941597;28;20001;-87
2022/08/06 07:47:47;;;;;;;;;;;;;;;;;;4976747;28;19923;-86
2022/08/06 07:50:12;;;;;;;;;;;;;;;;;;4946070;28;19915;-87
2022/08/06 07:52:37;;;;;;;;;;;;;;;;;;4940154;28;19952;-88
2022/08/06 07:55:02;;;;;;;;;;;;;;;;;;4945420;29;19915;-86
2022/08/06 07:57:28;;;;;;;;;;;;;;;;;;4947304;28;19962;-86
2022/08/06 07:59:53;;;;;;;;;;;;;;;;;;4942346;28;20361;-87
2022/08/06 08:02:18;;;;;;;;;;;;;;;;;;4943370;28;19914;-86
2022/08/06 08:07:28;;;;;;;;;;;;;;;;;;4943006;28;19934;-87
2022/08/06 08:09:53;;;;;;;;;;;;;;;;;;4943186;28;19915;-86
2022/08/06 08:12:18;;;;;;;;;;;;;;;;;;4945829;28;19915;-87
2022/08/06 08:14:43;;;;;;;;;;;;;;;;;;4950437;28;19989;-88
2022/08/06 08:17:09;;;;;;;;;;;;;;;;;;4948549;28;20369;-87
2022/08/06 08:19:34;;;;;;;;;;;;;;;;;;4948206;28;19926;-88
2022/08/06 08:21:59;;;;;;;;;;;;;;;;;;4946048;28;20383;-88
2022/08/06 08:24:24;;;;;;;;;;;;;;;;;;4945937;28;19915;-87
2022/08/06 08:26:49;;;;;;;;;;;;;;;;;;4938760;29;19926;-88
2022/08/06 08:29:15;;;;;;;;;;;;;;;;;;4952691;28;19961;-88
2022/08/06 08:31:40;;;;;;;;;;;;;;;;;;4952190;28;19918;-85
2022/08/06 08:34:06;;;;;;;;;;;;;;;;;;4948965;28;20004;-84
2022/08/06 08:36:31;;;;;;;;;;;;;;;;;;4951733;28;19914;-85
2022/08/06 08:38:57;;;;;;;;;;;;;;;;;;4946268;28;19922;-84
2022/08/06 08:41:22;;;;;;;;;;;;;;;;;;4948638;29;19946;-85
2022/08/06 08:43:48;;;;;;;;;;;;;;;;;;4950142;28;20526;-85
2022/08/06 08:46:13;;;;;;;;;;;;;;;;;;4978257;28;19948;-86
2022/08/06 08:48:38;;;;;;;;;;;;;;;;;;4979151;28;19945;-84
2022/08/06 08:51:04;;;;;;;;;;;;;;;;;;4972640;28;19989;-84
2022/08/06 08:53:29;;;;;;;;;;;;;;;;;;4976553;28;19915;-84
2022/08/06 08:55:54;;;;;;;;;;;;;;;;;;4950855;28;19914;-86
2022/08/06 08:58:19;;;;;;;;;;;;;;;;;;4948091;29;19914;-84
2022/08/06 09:00:44;;;;;;;;;;;;;;;;;;4952643;28;19914;-86
2022/08/06 09:03:10;;;;;;;;;;;;;;;;;;4948392;28;19926;-85
2022/08/06 09:05:35;;;;;;;;;;;;;;;;;;4948817;28;19922;-85
2022/08/06 09:08:00;;;;;;;;;;;;;;;;;;4947690;28;19923;-84
2022/08/06 09:10:25;;;;;;;;;;;;;;;;;;4949346;28;19915;-84
2022/08/06 09:12:51;;;;;;;;;;;;;;;;;;4946143;28;20096;-85
2022/08/06 09:15:16;;;;;;;;;;;;;;;;;;4943538;28;20360;-85
2022/08/06 09:17:41;;;;;;;;;;;;;;;;;;4951345;28;19926;-85
2022/08/06 09:20:06;;;;;;;;;;;;;;;;;;4950369;29;19920;-84
2022/08/06 09:22:32;;;;;;;;;;;;;;;;;;4949691;28;20369;-86
2022/08/06 09:24:57;;;;;;;;;;;;;;;;;;4946477;28;19918;-86
2022/08/06 09:27:22;;;;;;;;;;;;;;;;;;4949563;28;19925;-85
2022/08/06 09:29:47;;;;;;;;;;;;;;;;;;4942542;28;19953;-86
2022/08/06 09:32:12;;;;;;;;;;;;;;;;;;4939952;28;20412;-85
2022/08/06 09:34:37;;;;;;;;;;;;;;;;;;4948689;28;19915;-86
2022/08/06 09:37:03;;;;;;;;;;;;;;;;;;4953233;28;20017;-85
2022/08/06 09:39:28;;;;;;;;;;;;;;;;;;4950662;28;19989;-85
2022/08/06 09:41:53;;;;;;;;;;;;;;;;;;4951447;28;19923;-84
2022/08/06 09:44:18;;;;;;;;;;;;;;;;;;4941612;29;19911;-85
2022/08/06 09:46:43;;;;;;;;;;;;;;;;;;4945921;29;19918;-85
2022/08/06 09:49:10;;;;;;;;;;;;;;;;;;4950064;29;19921;-84
2022/08/06 09:51:35;;;;;;;;;;;;;;;;;;4951104;28;19953;-84
2022/08/06 09:54:00;;;;;;;;;;;;;;;;;;4954724;28;19978;-86
2022/08/06 09:56:26;;;;;;;;;;;;;;;;;;4939852;28;20415;-86
2022/08/06 09:58:51;;;;;;;;;;;;;;;;;;4949673;28;19918;-83
2022/08/06 10:01:16;;;;;;;;;;;;;;;;;;4946031;28;20404;-86
2022/08/06 10:03:41;;;;;;;;;;;;;;;;;;4967393;28;19918;-87
2022/08/06 10:06:07;;;;;;;;;;;;;;;;;;4947224;28;19918;-84
2022/08/06 10:08:32;;;;;;;;;;;;;;;;;;4950329;29;19929;-85
2022/08/06 10:11:02;;;;;;;;;;;;;;;;;;4975479;28;19974;-85
2022/08/06 10:13:27;;;;;;;;;;;;;;;;;;4950220;28;20037;-85
2022/08/06 10:15:52;;;;;;;;;;;;;;;;;;4945615;28;19994;-85
2022/08/06 10:18:18;;;;;;;;;;;;;;;;;;4945931;28;20393;-85
2022/08/06 10:20:43;;;;;;;;;;;;;;;;;;4942858;29;20404;-86
2022/08/06 10:23:08;;;;;;;;;;;;;;;;;;4948229;28;20170;-85
2022/08/06 10:25:33;;;;;;;;;;;;;;;;;;4944847;29;19922;-84
2022/08/06 10:28:00;;;;;;;;;;;;;;;;;;4948907;29;20536;-86
2022/08/06 10:30:26;;;;;;;;;;;;;;;;;;4948027;28;19954;-84
2022/08/06 10:32:54;;;;;;;;;;;;;;;;;;4944182;28;20013;-85
2022/08/06 10:59:09;;;;;;;;;;;;;;;;;;4968241;28;19953;-85
2022/08/06 11:01:35;;;;;;;;;;;;;;;;;;4968244;28;20030;-85
2022/08/06 11:04:00;;;;;;;;;;;;;;;;;;4962307;28;20008;-83
2022/08/06 11:06:25;;;;;;;;;;;;;;;;;;4965926;28;19922;-83
2022/08/06 11:08:52;;;;;;;;;;;;;;;;;;4964110;28;19926;-82
2022/08/06 11:11:29;;;;;;;;;;;;;;;;;;4961627;28;19918;-83
2022/08/06 11:33:41;;;;;;;;;;;;;;;;;;4892563;29;19986;-85
2022/08/06 12:05:57;;;;;;;;;;;;;;;;;;4990439;28;20342;-84
2022/08/06 12:14:16;;;;;;;;;;;;;;;;;;;;;
2022/08/06 13:18:16;;;;;;;;;;;;;;;;;;4857729;29;19916;-84
2022/08/06 14:18:02;;;;;;;;;;;;;;;;;;4909924;29;19967;-85
2022/08/06 15:51:19;;;;;;;;;;;;;;;;;;4983906;28;19922;-84
2022/08/06 16:13:19;;;;;;;;;;;;;;;;;;4905463;29;19962;-85
2022/08/06 16:37:43;;;;;;;;;;;;;;;;;;4921607;29;20493;-84
2022/08/06 16:40:09;;;;;;;;;;;;;;;;;;4927073;29;20046;-84
2022/08/06 16:42:55;;;;;;;;;;;;;;;;;;4953795;28;19999;-84
2022/08/06 16:45:19;;;;;;;;;;;;;;;;;;4984085;28;19918;-84
2022/08/06 17:06:51;;;;;;;;;;;;;;;;;;;;;
2022/08/06 17:09:24;;;;;;;;;;;;;;;;;;4984837;28;19922;-84
2022/08/06 17:12:02;;;;;;;;;;;;;;;;;;;;;
2022/08/06 17:14:29;;;;;;;;;;;;;;;;;;4978333;28;19922;-85
2022/08/06 17:16:57;;;;;;;;;;;;;;;;;;4958989;23;20286;-84
2022/08/06 17:19:34;;;;;;;;;;;;;;;;;;4927904;29;20007;-83
2022/08/06 17:22:04;;;;;;;;;;;;;;;;;;4926636;29;20337;-83
2022/08/06 17:24:29;;;;;;;;;;;;;;;;;;4932373;29;19962;-84
2022/08/06 17:26:58;;;;;;;;;;;;;;;;;;4942910;29;20389;-83
2022/08/06 17:29:23;;;;;;;;;;;;;;;;;;4936878;28;20340;-83
2022/08/06 17:31:55;;;;;;;;;;;;;;;;;;4936533;29;19950;-84
2022/08/06 17:34:33;;;;;;;;;;;;;;;;;;4931661;29;19946;-83
2022/08/06 17:37:16;;;;;;;;;;;;;;;;;;4947003;28;19927;-83
2022/08/06 17:39:44;;;;;;;;;;;;;;;;;;4932709;29;19930;-83
2022/08/06 17:42:16;;;;;;;;;;;;;;;;;;4936016;29;19922;-83
2022/08/06 17:44:44;;;;;;;;;;;;;;;;;;4931628;29;20843;-83
2022/08/06 17:47:35;;;;;;;;;;;;;;;;;;4935837;28;20408;-83
2022/08/06 17:50:03;;;;;;;;;;;;;;;;;;4929204;28;19915;-83
2022/08/06 17:52:31;;;;;;;;;;;;;;;;;;4931525;29;19915;-83
2022/08/06 17:54:56;;;;;;;;;;;;;;;;;;4926491;29;19918;-82
2022/08/06 17:57:22;;;;;;;;;;;;;;;;;;4941813;28;19915;-83
2022/08/06 17:59:47;;;;;;;;;;;;;;;;;;4937084;29;19915;-83
2022/08/06 18:02:12;;;;;;;;;;;;;;;;;;4933480;28;19923;-83
2022/08/06 18:04:37;;;;;;;;;;;;;;;;;;4937236;29;19949;-83
2022/08/06 18:07:20;;;;;;;;;;;;;;;;;;4933740;28;19962;-83
2022/08/06 18:10:21;;;;;;;;;;;;;;;;;;4932915;29;19961;-84
2022/08/06 18:12:32;;;;;;;;;;;;;;;;;;4925253;29;20014;-83
2022/08/06 18:15:08;;;;;;;;;;;;;;;;;;4929989;29;19918;-85
2022/08/06 18:17:38;;;;;;;;;;;;;;;;;;4926198;29;20005;-83
2022/08/06 18:20:06;;;;;;;;;;;;;;;;;;4931158;29;20481;-84
2022/08/06 18:22:41;;;;;;;;;;;;;;;;;;4930056;28;20332;-84
2022/08/06 18:25:07;;;;;;;;;;;;;;;;;;4931528;29;20429;-84
2022/08/06 18:27:34;;;;;;;;;;;;;;;;;;4927222;29;20002;-84
2022/08/06 18:30:08;;;;;;;;;;;;;;;;;;4931295;28;20497;-85
2022/08/06 18:32:35;;;;;;;;;;;;;;;;;;4927113;29;19925;-84
2022/08/06 18:35:46;;;;;;;;;;;;;;;;;;4930338;29;19919;-83
2022/08/06 18:40:33;;;;;;;;;;;;;;;;;;4927752;29;19911;-84
2022/08/06 18:43:04;;;;;;;;;;;;;;;;;;4932180;28;19958;-83
2022/08/06 18:48:20;;;;;;;;;;;;;;;;;;4927515;29;20383;-83
2022/08/06 18:50:53;;;;;;;;;;;;;;;;;;4930329;29;20266;-83
2022/08/06 18:53:18;;;;;;;;;;;;;;;;;;4931201;29;19946;-83
2022/08/06 18:55:47;;;;;;;;;;;;;;;;;;4933477;28;19985;-84
2022/08/06 18:58:12;;;;;;;;;;;;;;;;;;4937019;28;20556;-83
2022/08/06 19:00:40;;;;;;;;;;;;;;;;;;4931113;29;19919;-83
2022/08/06 19:03:12;;;;;;;;;;;;;;;;;;4935700;29;19918;-84
2022/08/06 19:05:37;;;;;;;;;;;;;;;;;;4933151;28;19915;-84
2022/08/06 19:08:21;;;;;;;;;;;;;;;;;;4934738;29;19978;-83
2022/08/06 19:10:49;;;;;;;;;;;;;;;;;;4930999;29;19922;-83
2022/08/06 19:13:17;;;;;;;;;;;;;;;;;;4928026;29;19961;-84
2022/08/06 19:15:44;;;;;;;;;;;;;;;;;;4936861;28;19919;-84
2022/08/06 19:18:12;;;;;;;;;;;;;;;;;;4925700;29;20309;-83
2022/08/06 19:20:46;;;;;;;;;;;;;;;;;;4928800;29;19915;-84
2022/08/06 19:23:13;;;;;;;;;;;;;;;;;;4929911;29;19918;-84
2022/08/06 19:28:30;;;;;;;;;;;;;;;;;;4899865;29;19923;-85
2022/08/06 19:30:55;;;;;;;;;;;;;;;;;;4928078;28;20510;-85
2022/08/06 19:39:16;;;;;;;;;;;;;;;;;;;;;
2022/08/06 19:47:37;;;;;;;;;;;;;;;;;;4891853;29;19925;-83
2022/08/06 19:53:09;;;;;;;;;;;;;;;;;;;;;
2022/08/06 19:55:37;;;;;;;;;;;;;;;;;;4875537;29;19920;-83
2022/08/06 19:58:03;;;;;;;;;;;;;;;;;;4896785;29;19919;-83
2022/08/06 20:06:37;;;;;;;;;;;;;;;;;;4851472;29;19920;-85
2022/08/06 20:09:29;;;;;;;;;;;;;;;;;;4884827;29;20014;-84
2022/08/06 20:12:12;;;;;;;;;;;;;;;;;;;;;
2022/08/06 20:20:14;;;;;;;;;;;;;;;;;;4928773;29;19922;-84
2022/08/06 20:25:39;;;;;;;;;;;;;;;;;;;;;
2022/08/06 20:28:52;;;;;;;;;;;;;;;;;;4914277;29;19915;-85
2022/08/06 20:42:28;;;;;;;;;;;;;;;;;;;;;
2022/08/06 21:07:28;;;;;;;;;;;;;;;;;;;;;
2022/08/06 21:21:08;;;;;;;;;;;;;;;;;;4819217;29;19917;-84
2022/08/06 21:26:33;;;;;;;;;;;;;;;;;;4860880;29;19916;-84
2022/08/06 21:42:50;;;;;;;;;;;;;;;;;;4891466;29;20987;-84
2022/08/06 21:48:00;;;;;;;;;;;;;;;;;;4937926;29;19934;-85
2022/08/06 21:54:30;;;;;;;;;;;;;;;;;;4929374;29;19922;-84
2022/08/06 22:02:08;;;;;;;;;;;;;;;;;;4930755;29;19918;-84
2022/08/06 22:04:44;;;;;;;;;;;;;;;;;;;;;
2022/08/06 22:07:09;;;;;;;;;;;;;;;;;;4926697;28;19914;-84
2022/08/06 22:17:54;;;;;;;;;;;;;;;;;;4930358;29;19926;-85
2022/08/06 22:20:32;;;;;;;;;;;;;;;;;;;;;
2022/08/06 22:39:53;;;;;;;;;;;;;;;;;;4931357;29;19957;-84
2022/08/06 22:42:24;;;;;;;;;;;;;;;;;;4928251;29;19943;-84
2022/08/06 22:45:02;;;;;;;;;;;;;;;;;;;;;
2022/08/06 22:47:35;;;;;;;;;;;;;;;;;;4924943;29;20324;-84
2022/08/06 22:50:07;;;;;;;;;;;;;;;;;;4932755;29;19941;-84
2022/08/06 22:52:35;;;;;;;;;;;;;;;;;;4931199;29;19915;-85
2022/08/06 22:55:01;;;;;;;;;;;;;;;;;;4929710;29;19915;-85
2022/08/06 22:57:28;;;;;;;;;;;;;;;;;;4930943;29;19922;-85
2022/08/06 22:59:59;;;;;;;;;;;;;;;;;;4932832;29;19946;-85
2022/08/06 23:10:50;;;;;;;;;;;;;;;;;;4911051;29;19930;-85
2022/08/06 23:13:28;;;;;;;;;;;;;;;;;;;;;
2022/08/06 23:15:54;;;;;;;;;;;;;;;;;;4925439;29;19956;-84
2022/08/06 23:18:19;;;;;;;;;;;;;;;;;;4931523;28;20428;-85
2022/08/06 23:20:45;;;;;;;;;;;;;;;;;;4942018;28;19929;-84
2022/08/06 23:23:10;;;;;;;;;;;;;;;;;;4924576;28;19914;-84
2022/08/06 23:25:35;;;;;;;;;;;;;;;;;;4927100;29;19921;-85
2022/08/06 23:28:00;;;;;;;;;;;;;;;;;;4935144;29;19926;-84
2022/08/06 23:30:25;;;;;;;;;;;;;;;;;;4929710;29;19922;-85
2022/08/06 23:32:51;;;;;;;;;;;;;;;;;;4931456;28;20010;-84
2022/08/06 23:35:16;;;;;;;;;;;;;;;;;;4925352;28;19927;-84
2022/08/06 23:37:41;;;;;;;;;;;;;;;;;;4941841;28;19910;-85
2022/08/06 23:40:06;;;;;;;;;;;;;;;;;;4932190;29;19914;-85
2022/08/06 23:42:31;;;;;;;;;;;;;;;;;;4932050;28;20266;-84
2022/08/06 23:44:57;;;;;;;;;;;;;;;;;;4937945;28;20034;-85
2022/08/06 23:47:22;;;;;;;;;;;;;;;;;;4931434;28;19922;-85
2022/08/06 23:49:47;;;;;;;;;;;;;;;;;;4935984;29;20503;-84
2022/08/06 23:52:12;;;;;;;;;;;;;;;;;;4937834;28;20001;-84
2022/08/06 23:54:37;;;;;;;;;;;;;;;;;;4927581;29;20533;-85
2022/08/06 23:57:03;;;;;;;;;;;;;;;;;;4929647;28;20038;-84
2022/08/06 23:59:28;;;;;;;;;;;;;;;;;;4934535;29;19922;-84
